Time;durP1;ratioP1;P1;durP2;ratioP2;P2;SDS_P1;SDS_P2;PMS_P1;PMS_P2;Temp;Humidity;BMP_temperature;BMP_pressure;BME280_temperature;BME280_humidity;BME280_pressure;Samples;Min_cycle;Max_cycle;Signal;HPM_P1;HPM_P2
2024/01/18 00:01:01;;;;;;;12.80;8.30;;;;;;;-0.76;73.95;97238.84;105193;1264;71854;-27
2024/01/18 00:11:04;;;;;;;12.40;7.70;;;;;;;-0.81;74.72;97237.63;102752;1292;600259;-27
2024/01/18 00:21:08;;;;;;;11.40;7.60;;;;;;;-0.96;75.31;97207.25;102734;1290;600245;-27
2024/01/18 00:23:36;;;;;;;14.60;7.80;;;;;;;-0.54;74.90;97210.82;108726;1265;58984;-26
2024/01/18 00:26:05;;;;;;;7.40;5.50;;;;;;;-0.26;74.08;97202.20;108695;1265;60014;-26
2024/01/18 00:28:32;;;;;;;10.80;7.70;;;;;;;-0.28;73.44;97205.54;108638;1266;72358;-26
2024/01/18 00:31:00;;;;;;;11.70;7.20;;;;;;;-0.43;74.15;97200.04;108738;1265;72874;-26
2024/01/18 00:33:28;;;;;;;11.30;6.30;;;;;;;-0.56;74.72;97198.70;108703;1266;72674;-26
2024/01/18 00:35:55;;;;;;;10.00;6.40;;;;;;;-0.51;75.35;97191.00;108599;1263;160912;-26
2024/01/18 00:38:23;;;;;;;12.40;8.70;;;;;;;-0.05;73.89;97195.66;108784;1266;60027;-26
2024/01/18 00:40:50;;;;;;;12.40;6.80;;;;;;;-0.01;73.73;97190.48;108854;1263;72235;-26
2024/01/18 00:43:18;;;;;;;8.30;5.80;;;;;;;-0.06;74.24;97180.05;108852;1263;73162;-26
2024/01/18 00:45:45;;;;;;;9.30;6.00;;;;;;;-0.28;75.55;97173.66;108721;1263;71382;-26
2024/01/18 00:48:13;;;;;;;10.30;6.30;;;;;;;-0.36;76.29;97168.58;108829;1263;60872;-26
2024/01/18 00:50:40;;;;;;;9.90;6.50;;;;;;;0.06;75.39;97153.95;108729;1263;58964;-26
2024/01/18 00:53:08;;;;;;;9.50;6.70;;;;;;;0.25;74.67;97153.21;108857;1263;70759;-26
2024/01/18 00:55:35;;;;;;;9.00;6.20;;;;;;;0.18;74.70;97153.36;108822;1263;73051;-26
2024/01/18 00:58:03;;;;;;;10.30;7.20;;;;;;;0.02;75.50;97146.06;109020;1260;71666;-26
2024/01/18 01:00:31;;;;;;;11.10;7.50;;;;;;;-0.10;76.40;97142.61;109015;1260;60852;-26
2024/01/18 01:02:58;;;;;;;10.50;7.00;;;;;;;0.32;75.41;97135.27;108941;1260;59145;-26
2024/01/18 01:05:26;;;;;;;10.10;6.60;;;;;;;0.49;74.66;97135.82;109020;1260;70832;-26
2024/01/18 01:07:54;;;;;;;10.50;5.60;;;;;;;0.47;74.45;97133.26;108992;1260;74302;-26
2024/01/18 01:10:21;;;;;;;10.10;6.70;;;;;;;0.27;74.99;97124.23;108892;1259;72661;-26
2024/01/18 01:12:48;;;;;;;10.40;6.40;;;;;;;0.07;75.82;97124.55;108916;1260;58912;-26
2024/01/18 01:15:16;;;;;;;6.10;4.70;;;;;;;0.28;76.07;97118.53;109033;1260;60054;-26
2024/01/18 01:17:44;;;;;;;9.70;6.30;;;;;;;0.60;74.68;97113.38;108982;1260;73054;-26
2024/01/18 01:20:12;;;;;;;11.00;5.50;;;;;;;0.67;74.63;97114.91;108910;1260;74289;-26
2024/01/18 01:22:39;;;;;;;8.90;5.50;;;;;;;0.51;74.76;97117.57;108958;1260;72814;-26
2024/01/18 01:25:07;;;;;;;7.30;5.10;;;;;;;0.32;75.86;97114.28;108937;1260;58870;-26
2024/01/18 01:27:35;;;;;;;7.10;5.20;;;;;;;0.39;76.10;97106.27;108851;1263;60022;-26
2024/01/18 01:30:03;;;;;;;11.60;5.80;;;;;;;0.80;74.80;97095.92;108824;1262;73118;-26
2024/01/18 01:32:30;;;;;;;9.80;5.40;;;;;;;0.91;74.41;97101.58;109040;1257;73630;-26
2024/01/18 01:34:58;;;;;;;11.90;6.80;;;;;;;0.84;74.59;97088.21;109030;1257;72750;-26
2024/01/18 01:37:25;;;;;;;9.10;5.10;;;;;;;0.64;75.28;97081.96;109038;1257;58917;-26
2024/01/18 01:39:53;;;;;;;8.10;5.30;;;;;;;0.47;76.47;97085.42;109044;1257;58828;-26
2024/01/18 01:42:20;;;;;;;12.20;7.50;;;;;;;0.86;75.91;97075.59;109044;1256;73054;-26
2024/01/18 01:44:49;;;;;;;9.90;6.10;;;;;;;1.17;74.33;97071.14;109040;1257;73251;-26
2024/01/18 01:47:17;;;;;;;10.50;6.10;;;;;;;1.13;74.70;97069.03;109122;1257;72628;-26
2024/01/18 01:49:45;;;;;;;10.40;6.50;;;;;;;0.94;75.35;97069.70;109130;1257;59219;-26
2024/01/18 01:52:12;;;;;;;8.50;6.50;;;;;;;0.82;76.04;97067.06;109148;1257;60016;-26
2024/01/18 01:54:40;;;;;;;8.70;6.10;;;;;;;0.85;76.71;97060.15;109119;1257;72778;-26
2024/01/18 01:57:07;;;;;;;8.70;6.10;;;;;;;1.27;75.53;97046.31;109126;1257;74477;-26
2024/01/18 01:59:37;;;;;;;9.20;5.00;;;;;;;1.39;74.95;97023.30;109120;1257;72639;-26
2024/01/18 02:02:05;;;;;;;12.20;5.70;;;;;;;1.29;75.49;97028.36;109109;1259;58827;-26
2024/01/18 02:04:32;;;;;;;9.60;5.90;;;;;;;1.11;76.13;97014.33;109122;1257;60026;-26
2024/01/18 02:07:00;;;;;;;9.20;6.20;;;;;;;1.04;76.78;97010.89;109112;1257;73043;-26
2024/01/18 02:09:27;;;;;;;7.80;5.60;;;;;;;1.41;75.65;97013.79;109103;1257;74443;-26
2024/01/18 02:11:55;;;;;;;9.50;5.70;;;;;;;1.47;75.21;97001.66;109123;1257;72678;-26
2024/01/18 02:14:22;;;;;;;10.30;5.90;;;;;;;1.30;75.94;96995.11;109111;1257;59252;-26
2024/01/18 02:16:50;;;;;;;8.50;5.60;;;;;;;1.13;76.45;96997.77;109049;1257;58753;-26
2024/01/18 02:19:17;;;;;;;7.60;5.10;;;;;;;1.16;77.02;96987.14;109089;1257;72996;-26
2024/01/18 02:21:45;;;;;;;8.10;5.30;;;;;;;1.62;75.95;96978.35;109132;1257;74304;-26
2024/01/18 02:24:19;;;;;;;10.00;5.80;;;;;;;1.74;75.05;96986.46;109107;1257;72645;-26
2024/01/18 02:26:47;;;;;;;7.80;5.40;;;;;;;1.54;75.71;96968.36;109005;1258;58786;-26
2024/01/18 02:29:14;;;;;;;11.20;5.90;;;;;;;1.34;76.55;96959.91;109082;1257;60062;-26
2024/01/18 02:31:41;;;;;;;11.20;6.50;;;;;;;1.31;77.30;96941.19;109019;1257;73127;-26
2024/01/18 02:34:11;;;;;;;7.70;5.30;;;;;;;1.70;76.18;96938.34;109092;1260;74306;-26
2024/01/18 02:36:39;;;;;;;7.50;5.10;;;;;;;1.88;75.56;96944.27;109029;1258;71437;-26
2024/01/18 02:39:06;;;;;;;10.70;6.50;;;;;;;1.74;75.67;96945.89;109073;1257;59458;-25
2024/01/18 02:41:34;;;;;;;6.70;5.10;;;;;;;1.58;76.52;96949.17;109120;1257;58721;-26
2024/01/18 02:44:01;;;;;;;7.50;5.30;;;;;;;1.62;77.15;96945.31;109020;1257;71813;-25
2024/01/18 02:46:32;;;;;;;8.30;5.50;;;;;;;2.07;75.66;96939.91;109066;1257;74337;-26
2024/01/18 02:49:00;;;;;;;11.80;6.40;;;;;;;2.21;74.85;96934.67;109001;1257;72637;-26
2024/01/18 02:51:28;;;;;;;8.60;5.80;;;;;;;2.04;75.44;96938.70;109073;1259;58888;-26
2024/01/18 02:53:55;;;;;;;6.10;4.80;;;;;;;1.88;76.17;96929.25;109118;1257;59115;-27
2024/01/18 02:56:23;;;;;;;8.40;6.30;;;;;;;1.78;77.15;96926.27;109053;1257;71759;-27
2024/01/18 02:58:50;;;;;;;6.80;4.30;;;;;;;2.18;76.05;96928.02;109082;1257;74319;-27
2024/01/18 03:01:18;;;;;;;8.40;6.10;;;;;;;2.31;75.31;96922.16;109059;1257;72665;-27
2024/01/18 03:03:45;;;;;;;9.10;6.00;;;;;;;2.28;75.23;96924.98;109091;1259;59260;-27
2024/01/18 03:06:13;;;;;;;10.10;6.70;;;;;;;2.08;76.30;96929.52;109095;1257;60005;-28
2024/01/18 03:08:40;;;;;;;8.80;5.50;;;;;;;1.97;77.05;96929.70;109094;1257;73115;-28
2024/01/18 03:11:08;;;;;;;8.60;5.50;;;;;;;2.37;75.94;96918.67;109099;1257;73136;-28
2024/01/18 03:13:35;;;;;;;6.10;4.50;;;;;;;2.49;75.28;96928.13;109088;1257;72701;-28
2024/01/18 03:16:03;;;;;;;5.80;4.10;;;;;;;2.43;75.47;96941.30;109112;1257;58953;-27
2024/01/18 03:18:32;;;;;;;7.20;4.50;;;;;;;2.20;76.06;96931.82;109088;1257;59977;-28
2024/01/18 03:20:59;;;;;;;8.40;4.80;;;;;;;2.23;76.73;96921.98;109061;1257;72836;-28
2024/01/18 03:23:27;;;;;;;8.40;5.60;;;;;;;2.61;75.32;96915.80;109103;1257;74759;-28
2024/01/18 03:25:54;;;;;;;7.30;5.00;;;;;;;2.72;74.81;96918.01;108974;1259;72663;-28
2024/01/18 03:28:21;;;;;;;6.50;4.90;;;;;;;2.62;75.00;96914.71;109024;1259;59484;-29
2024/01/18 03:30:49;;;;;;;7.50;5.10;;;;;;;2.28;76.16;96915.41;109051;1259;58709;-28
2024/01/18 03:33:17;;;;;;;10.00;4.90;;;;;;;2.31;76.76;96913.42;109033;1259;71826;-29
2024/01/18 03:35:44;;;;;;;8.60;5.70;;;;;;;2.71;75.48;96902.02;109042;1259;72033;-28
2024/01/18 03:38:12;;;;;;;9.80;5.60;;;;;;;2.73;74.99;96883.17;109021;1260;72663;-28
2024/01/18 03:40:39;;;;;;;8.00;5.30;;;;;;;2.66;75.12;96878.21;109004;1259;59723;-29
2024/01/18 03:43:07;;;;;;;7.80;5.50;;;;;;;2.42;76.04;96867.73;109013;1260;60199;-29
2024/01/18 03:45:35;;;;;;;9.00;5.30;;;;;;;2.34;77.03;96860.64;109020;1260;72904;-28
2024/01/18 03:48:02;;;;;;;11.40;6.50;;;;;;;2.74;75.61;96861.98;109053;1258;73048;-29
2024/01/18 03:50:30;;;;;;;9.00;5.00;;;;;;;2.73;75.34;96848.53;109004;1260;71404;-29
2024/01/18 03:52:57;;;;;;;6.60;5.10;;;;;;;2.56;75.95;96858.53;109047;1259;58793;-29
2024/01/18 03:55:25;;;;;;;6.70;4.40;;;;;;;2.39;76.70;96864.70;109057;1259;58729;-29
2024/01/18 03:57:52;;;;;;;5.80;3.80;;;;;;;2.53;76.91;96868.23;109020;1259;73052;-29
2024/01/18 04:00:20;;;;;;;6.50;4.00;;;;;;;2.97;75.15;96868.78;108989;1259;74328;-29
2024/01/18 04:02:47;;;;;;;10.60;5.40;;;;;;;2.96;74.81;96864.06;108956;1259;72700;-29
2024/01/18 04:05:15;;;;;;;8.40;4.60;;;;;;;2.89;74.88;96866.62;109030;1259;58717;-28
2024/01/18 04:07:42;;;;;;;8.10;4.20;;;;;;;2.68;75.66;96858.74;108998;1259;60104;-29
2024/01/18 04:10:10;;;;;;;7.00;5.20;;;;;;;2.57;76.80;96861.02;109061;1259;71783;-29
2024/01/18 04:12:37;;;;;;;11.00;6.10;;;;;;;3.06;74.90;96855.83;108966;1258;74280;-29
2024/01/18 04:15:08;;;;;;;11.20;6.50;;;;;;;2.93;75.11;96849.27;109015;1259;72658;-29
2024/01/18 04:17:37;;;;;;;7.70;5.30;;;;;;;2.96;74.98;96850.75;109011;1264;59334;-29
2024/01/18 04:22:26;;;;;;;6.40;3.80;;;;;;;2.53;76.91;96847.97;102820;1291;600864;-28
2024/01/18 04:24:53;;;;;;;6.00;3.90;;;;;;;3.01;75.44;96854.88;104922;1269;61209;-29
2024/01/18 04:35:00;;;;;;;6.00;4.40;;;;;;;2.87;76.13;96835.16;102735;1294;599535;-30
2024/01/18 04:37:28;;;;;;;8.60;4.40;;;;;;;3.21;74.72;96838.30;105079;1269;61165;-30
2024/01/18 04:39:55;;;;;;;8.20;5.30;;;;;;;3.23;74.14;96843.96;104900;1267;62752;-30
2024/01/18 04:42:23;;;;;;;5.70;3.70;;;;;;;2.84;75.67;96845.73;104680;1264;72242;-29
2024/01/18 04:44:50;;;;;;;4.50;3.60;;;;;;;2.73;76.49;96858.68;104796;1270;72736;-29
2024/01/18 04:47:18;;;;;;;4.90;3.50;;;;;;;3.19;75.25;96847.24;104818;1270;72619;-29
2024/01/18 04:49:46;;;;;;;9.70;4.30;;;;;;;3.52;73.43;96850.35;104885;1264;152575;-29
2024/01/18 04:52:14;;;;;;;4.90;3.50;;;;;;;3.50;73.38;96849.22;105673;1257;61196;-29
2024/01/18 04:54:41;;;;;;;6.40;4.80;;;;;;;3.31;73.94;96854.36;105906;1251;70996;-29
2024/01/18 04:57:09;;;;;;;7.40;5.10;;;;;;;3.02;75.01;96848.52;105727;1251;74315;-29
2024/01/18 05:07:13;;;;;;;7.50;3.90;;;;;;;3.53;73.44;96822.64;102672;1293;599494;-26
2024/01/18 05:09:41;;;;;;;6.80;4.50;;;;;;;3.35;73.68;96829.21;105031;1267;61168;-26
2024/01/18 05:12:09;;;;;;;6.50;5.10;;;;;;;3.07;74.78;96829.17;104800;1271;61182;-28
2024/01/18 05:14:40;;;;;;;5.20;3.90;;;;;;;3.35;74.73;96823.88;105510;1261;71139;-29
2024/01/18 05:17:10;;;;;;;5.20;4.00;;;;;;;3.73;73.30;96824.89;105514;1263;74198;-29
2024/01/18 05:19:39;;;;;;;8.70;6.60;;;;;;;3.65;73.09;96818.73;105530;1257;71439;-29
2024/01/18 05:29:30;;;;;;;8.60;4.30;;;;;;;3.69;73.66;96810.27;102792;1294;601023;-26
2024/01/18 05:31:58;;;;;;;7.80;4.50;;;;;;;3.65;73.14;96804.80;104936;1267;61168;-28
2024/01/18 05:34:26;;;;;;;6.50;4.90;;;;;;;3.45;73.65;96793.49;104843;1267;61591;-28
2024/01/18 05:36:54;;;;;;;6.10;3.80;;;;;;;3.18;75.01;96791.89;105556;1258;71022;-28
2024/01/18 05:39:22;;;;;;;8.70;4.50;;;;;;;3.57;73.99;96783.58;105259;1265;74321;-28
2024/01/18 05:41:49;;;;;;;7.50;4.70;;;;;;;3.81;72.98;96777.02;105498;1257;72615;-28
2024/01/18 05:44:17;;;;;;;5.70;3.90;;;;;;;3.58;73.39;96774.83;105500;1260;183566;-27
2024/01/18 05:46:45;;;;;;;6.80;4.60;;;;;;;3.46;73.91;96775.79;105607;1255;61126;-28
2024/01/18 05:49:12;;;;;;;6.30;3.60;;;;;;;3.31;74.41;96770.02;105638;1260;70040;-28
2024/01/18 05:51:41;;;;;;;6.50;4.00;;;;;;;3.65;73.92;96766.36;105677;1260;74312;-28
2024/01/18 05:54:10;;;;;;;6.00;4.20;;;;;;;3.91;72.59;96764.54;105633;1254;71431;-28
2024/01/18 05:56:38;;;;;;;8.50;4.70;;;;;;;3.88;72.46;96768.27;105615;1254;61094;-28
2024/01/18 05:59:06;;;;;;;4.40;3.50;;;;;;;3.69;73.18;96759.32;105533;1260;61126;-27
2024/01/18 06:01:34;;;;;;;8.40;4.10;;;;;;;3.54;73.66;96760.27;105575;1259;71494;-28
2024/01/18 06:04:02;;;;;;;5.00;3.30;;;;;;;3.65;73.90;96748.02;105576;1255;73084;-28
2024/01/18 06:06:31;;;;;;;6.90;4.00;;;;;;;3.99;72.56;96752.33;105607;1260;71862;-28
2024/01/18 06:08:59;;;;;;;7.70;4.40;;;;;;;4.04;72.03;96749.30;105423;1260;61174;-27
2024/01/18 06:11:26;;;;;;;6.90;4.70;;;;;;;3.82;72.74;96742.60;105469;1254;61146;-26
2024/01/18 06:13:54;;;;;;;7.50;4.90;;;;;;;3.64;73.41;96739.67;105574;1261;73006;-27
2024/01/18 06:16:22;;;;;;;6.20;3.90;;;;;;;3.61;73.98;96733.95;105636;1260;74277;-27
2024/01/18 06:18:49;;;;;;;6.90;4.00;;;;;;;4.04;72.41;96728.87;105656;1254;71560;-27
2024/01/18 06:28:56;;;;;;;6.60;3.90;;;;;;;3.68;73.50;96714.09;102746;1294;600296;-28
2024/01/18 06:31:26;;;;;;;5.30;3.70;;;;;;;3.98;72.75;96719.16;104909;1266;61162;-26
2024/01/18 06:33:54;;;;;;;10.00;5.20;;;;;;;4.32;71.21;96716.23;104926;1270;62335;-26
2024/01/18 06:36:25;;;;;;;10.50;4.70;;;;;;;4.24;71.18;96709.70;104907;1263;74169;-26
2024/01/18 06:38:53;;;;;;;4.90;3.50;;;;;;;4.11;71.65;96704.58;104869;1266;74127;-26
2024/01/18 06:41:20;;;;;;;6.10;3.40;;;;;;;3.90;72.41;96713.85;104770;1266;71829;-28
2024/01/18 06:51:25;;;;;;;4.60;3.30;;;;;;;4.39;70.78;96711.40;102676;1294;599485;-26
2024/01/18 06:53:52;;;;;;;4.70;3.40;;;;;;;4.25;71.02;96715.45;104888;1271;61200;-26
2024/01/18 06:56:20;;;;;;;8.30;4.40;;;;;;;4.02;71.87;96707.56;104869;1272;62412;-26
2024/01/18 06:58:48;;;;;;;6.60;4.60;;;;;;;4.13;72.06;96709.48;104929;1267;72074;-26
2024/01/18 07:01:15;;;;;;;4.60;3.40;;;;;;;4.56;70.27;96712.58;104742;1272;74155;-26
2024/01/18 07:03:43;;;;;;;5.40;3.80;;;;;;;4.55;70.18;96716.02;104873;1270;74494;-26
2024/01/18 07:06:11;;;;;;;7.50;4.10;;;;;;;4.39;70.57;96717.45;105026;1267;205964;-26
2024/01/18 07:08:40;;;;;;;7.20;4.20;;;;;;;4.24;71.17;96721.23;104895;1263;61142;-28
2024/01/18 07:11:08;;;;;;;6.80;3.60;;;;;;;4.04;71.83;96708.95;105141;1263;73099;-27
2024/01/18 07:20:12;;;;;;;7.50;5.10;;;;;;;4.41;70.62;96697.36;102648;1292;599555;-26
2024/01/18 07:22:39;;;;;;;5.40;3.10;;;;;;;4.28;70.85;96702.44;104842;1269;61200;-26
2024/01/18 07:25:07;;;;;;;6.90;3.90;;;;;;;4.10;71.53;96704.61;104852;1267;61135;-29
2024/01/18 07:27:36;;;;;;;8.80;3.90;;;;;;;4.11;72.09;96703.33;104827;1267;70705;-29
2024/01/18 07:30:06;;;;;;;6.20;4.00;;;;;;;4.63;70.15;96703.37;104785;1267;74308;-29
2024/01/18 07:32:33;;;;;;;7.20;4.80;;;;;;;4.58;69.84;96701.93;104720;1274;72672;-29
2024/01/18 07:35:02;;;;;;;5.60;4.10;;;;;;;4.39;70.61;96706.98;108534;1264;177561;-26
2024/01/18 07:37:29;;;;;;;5.10;3.60;;;;;;;4.39;70.68;96709.69;108735;1265;58760;-26
2024/01/18 07:39:57;;;;;;;4.90;3.00;;;;;;;4.19;71.32;96699.02;108707;1264;71363;-26
2024/01/18 07:42:24;;;;;;;5.40;4.10;;;;;;;4.40;70.90;96701.13;108730;1264;74295;-27
2024/01/18 07:44:52;;;;;;;6.20;3.50;;;;;;;4.73;69.51;96691.55;108694;1264;72632;-27
2024/01/18 07:47:20;;;;;;;10.90;4.70;;;;;;;4.70;69.31;96687.21;108717;1265;58834;-27
2024/01/18 07:49:47;;;;;;;8.70;4.10;;;;;;;4.61;69.64;96689.98;108708;1264;58757;-27
2024/01/18 07:52:17;;;;;;;6.30;3.90;;;;;;;4.33;70.46;96689.45;108734;1266;72073;-27
2024/01/18 07:54:45;;;;;;;6.60;4.20;;;;;;;4.17;71.23;96680.98;108567;1270;73111;-27
2024/01/18 07:57:13;;;;;;;5.60;3.30;;;;;;;4.42;71.02;96678.88;108695;1265;72658;-27
2024/01/18 07:59:41;;;;;;;8.10;5.10;;;;;;;4.85;69.22;96681.52;108691;1265;60033;-27
2024/01/18 08:02:09;;;;;;;7.20;4.10;;;;;;;4.85;68.80;96672.07;108676;1264;60422;-27
2024/01/18 08:04:37;;;;;;;5.40;4.30;;;;;;;4.68;69.16;96674.17;108709;1266;75255;-27
2024/01/18 08:07:04;;;;;;;9.60;4.60;;;;;;;4.46;70.15;96677.59;108670;1264;74378;-27
2024/01/18 08:09:32;;;;;;;8.30;4.90;;;;;;;4.31;70.62;96676.78;108577;1264;72693;-28
2024/01/18 08:12:00;;;;;;;8.20;4.90;;;;;;;4.18;71.35;96673.15;108718;1263;60468;-28
2024/01/18 08:14:27;;;;;;;6.90;4.30;;;;;;;4.62;70.11;96671.49;108764;1264;62199;-28
2024/01/18 08:16:55;;;;;;;7.80;4.20;;;;;;;4.74;69.63;96676.35;108753;1265;75327;-28
2024/01/18 08:19:22;;;;;;;9.60;4.20;;;;;;;4.58;70.04;96667.52;108701;1264;74308;-29
2024/01/18 08:21:50;;;;;;;7.90;5.30;;;;;;;4.48;70.50;96673.34;108732;1265;71308;-30
2024/01/18 08:24:17;;;;;;;6.90;4.10;;;;;;;4.32;71.31;96669.29;108664;1264;60192;-29
2024/01/18 08:26:45;;;;;;;5.20;3.40;;;;;;;4.44;71.17;96666.80;108761;1263;60012;-29
2024/01/18 08:29:12;;;;;;;10.60;3.40;;;;;;;4.85;69.50;96664.28;108715;1264;73051;-29
2024/01/18 08:31:40;;;;;;;8.90;5.10;;;;;;;4.80;69.51;96666.90;108719;1264;74310;-29
2024/01/18 08:34:08;;;;;;;5.80;4.40;;;;;;;4.68;69.95;96670.36;108670;1264;72736;-29
2024/01/18 08:36:36;;;;;;;7.80;4.80;;;;;;;4.63;70.05;96667.66;108640;1266;58749;-29
2024/01/18 08:39:04;;;;;;;6.80;5.50;;;;;;;4.50;70.69;96666.22;108697;1266;60022;-30
2024/01/18 08:41:31;;;;;;;5.30;4.00;;;;;;;4.57;70.99;96670.03;108713;1264;73046;-29
2024/01/18 08:43:59;;;;;;;9.00;5.60;;;;;;;5.00;69.08;96670.58;108682;1264;74579;-29
2024/01/18 08:46:27;;;;;;;8.00;4.70;;;;;;;4.98;69.05;96669.10;109105;1261;74807;-29
2024/01/18 08:48:54;;;;;;;6.30;4.70;;;;;;;4.88;69.25;96670.06;109083;1256;60987;-29
2024/01/18 08:51:22;;;;;;;8.40;5.70;;;;;;;4.55;70.49;96660.27;109058;1256;58824;-29
2024/01/18 08:53:49;;;;;;;8.80;6.00;;;;;;;4.41;71.51;96667.58;109114;1256;73985;-30
2024/01/18 08:56:17;;;;;;;9.60;5.40;;;;;;;4.55;71.77;96669.04;109093;1256;76699;-29
2024/01/18 08:58:53;;;;;;;7.90;5.20;;;;;;;4.86;70.81;96669.88;109085;1256;71749;-29
2024/01/18 09:01:21;;;;;;;9.30;5.00;;;;;;;4.69;71.58;96674.23;109063;1256;61434;-29
2024/01/18 09:03:48;;;;;;;7.10;4.60;;;;;;;4.58;72.14;96675.27;109106;1257;60580;-30
2024/01/18 09:06:16;;;;;;;7.00;4.20;;;;;;;4.56;73.14;96680.48;109080;1261;71883;-31
2024/01/18 09:08:44;;;;;;;8.00;4.50;;;;;;;4.80;72.63;96676.72;109081;1257;75486;-31
2024/01/18 09:11:11;;;;;;;7.20;5.10;;;;;;;4.85;72.50;96671.55;109099;1257;72662;-31
2024/01/18 09:13:41;;;;;;;5.60;3.90;;;;;;;4.85;72.73;96669.46;109056;1262;60464;-31
2024/01/18 09:16:09;;;;;;;5.50;3.30;;;;;;;4.70;73.42;96667.98;109052;1263;61027;-31
2024/01/18 09:18:37;;;;;;;5.10;3.50;;;;;;;4.70;74.19;96664.41;109105;1256;74001;-31
2024/01/18 09:21:06;;;;;;;5.20;3.60;;;;;;;5.05;73.09;96659.34;109089;1257;74326;-31
2024/01/18 09:23:36;;;;;;;7.20;3.80;;;;;;;5.01;73.51;96660.73;109097;1256;71135;-31
2024/01/18 09:26:03;;;;;;;7.80;4.80;;;;;;;4.78;74.31;96650.33;108836;1260;61662;-31
2024/01/18 09:28:31;;;;;;;6.10;4.60;;;;;;;4.68;75.11;96642.94;109019;1261;59896;-32
2024/01/18 09:30:58;;;;;;;6.00;4.10;;;;;;;4.92;74.79;96642.82;109021;1258;73013;-31
2024/01/18 09:33:26;;;;;;;6.10;4.20;;;;;;;5.13;73.88;96645.11;108958;1265;73555;-31
2024/01/18 09:35:54;;;;;;;5.00;3.80;;;;;;;5.06;73.96;96642.02;109005;1258;74614;-31
2024/01/18 09:38:22;;;;;;;7.20;4.90;;;;;;;4.92;74.70;96641.51;108934;1264;60767;-31
2024/01/18 09:40:49;;;;;;;7.00;4.80;;;;;;;4.70;75.87;96640.45;109021;1258;60982;-30
2024/01/18 09:43:17;;;;;;;6.60;3.80;;;;;;;5.04;75.16;96637.73;109002;1259;73014;-31
2024/01/18 09:45:46;;;;;;;6.90;4.70;;;;;;;5.20;73.98;96642.23;109014;1260;74306;-31
2024/01/18 09:48:14;;;;;;;6.90;4.20;;;;;;;5.02;74.89;96630.85;108972;1261;71514;-30
2024/01/18 09:50:46;;;;;;;6.10;4.40;;;;;;;4.92;75.23;96632.67;108994;1259;61228;-31
2024/01/18 09:53:13;;;;;;;4.10;2.80;;;;;;;4.91;76.02;96631.59;109012;1261;62262;-31
2024/01/18 09:55:41;;;;;;;5.90;3.80;;;;;;;5.24;74.74;96626.92;109000;1259;75104;-31
2024/01/18 09:58:11;;;;;;;5.00;3.70;;;;;;;5.24;74.52;96626.36;109002;1260;75322;-30
2024/01/18 10:00:43;;;;;;;5.30;3.50;;;;;;;5.01;75.40;96618.42;108924;1263;74231;-30
2024/01/18 10:03:11;;;;;;;6.10;3.10;;;;;;;4.79;76.64;96615.86;108895;1260;60229;-30
2024/01/18 10:05:39;;;;;;;6.60;3.90;;;;;;;5.05;76.37;96611.00;108948;1260;62143;-30
2024/01/18 10:08:06;;;;;;;6.90;4.80;;;;;;;5.32;75.31;96608.41;108888;1260;75271;-30
2024/01/18 10:10:34;;;;;;;5.90;3.70;;;;;;;5.28;75.33;96604.45;109018;1259;72987;-30
2024/01/18 10:13:02;;;;;;;5.40;3.40;;;;;;;5.05;76.12;96597.62;108917;1260;73001;-29
2024/01/18 10:15:34;;;;;;;10.50;4.10;;;;;;;4.98;76.55;96593.31;108970;1259;61153;-29
2024/01/18 10:18:03;;;;;;;6.10;3.30;;;;;;;5.35;75.71;96592.65;108932;1260;58707;-30
2024/01/18 10:20:30;;;;;;;6.50;4.80;;;;;;;5.61;74.28;96591.73;108917;1258;75529;-29
2024/01/18 10:22:58;;;;;;;7.10;3.80;;;;;;;5.55;74.17;96586.98;109013;1259;75990;-29
2024/01/18 10:25:30;;;;;;;6.10;3.50;;;;;;;5.43;74.39;96588.91;108971;1259;72480;-29
2024/01/18 10:27:58;;;;;;;5.60;3.00;;;;;;;5.21;75.39;96582.09;108882;1264;58830;-29
2024/01/18 10:30:25;;;;;;;9.50;3.40;;;;;;;5.43;75.21;96583.34;108994;1259;62238;-29
2024/01/18 10:32:53;;;;;;;6.00;3.80;;;;;;;5.70;73.88;96585.85;109030;1261;74025;-28
2024/01/18 10:35:25;;;;;;;7.00;3.90;;;;;;;5.83;73.21;96578.52;109043;1260;76657;-28
2024/01/18 10:38:11;;;;;;;8.50;3.10;;;;;;;5.68;73.46;96569.68;108933;1259;73669;-28
2024/01/18 10:40:39;;;;;;;7.20;4.10;;;;;;;5.33;74.71;96562.71;108731;1260;61589;-27
2024/01/18 10:43:07;;;;;;;5.10;3.20;;;;;;;5.08;76.08;96559.46;108987;1259;62392;-27
2024/01/18 10:45:36;;;;;;;4.70;3.20;;;;;;;5.59;74.74;96564.09;108953;1259;74546;-29
2024/01/18 10:48:04;;;;;;;5.60;4.00;;;;;;;5.70;73.87;96565.52;108965;1260;76117;-28
2024/01/18 10:50:33;;;;;;;4.30;3.30;;;;;;;5.44;74.64;96569.34;108871;1259;72959;-27
2024/01/18 10:53:01;;;;;;;7.10;3.50;;;;;;;5.37;75.03;96557.15;108966;1260;59833;-27
2024/01/18 10:55:28;;;;;;;7.30;3.90;;;;;;;5.19;75.80;96561.16;108933;1259;61557;-27
2024/01/18 10:57:56;;;;;;;5.90;3.40;;;;;;;5.46;75.16;96555.35;108970;1260;74566;-27
2024/01/18 11:00:23;;;;;;;5.20;3.50;;;;;;;5.59;74.30;96546.17;109032;1260;76610;-27
2024/01/18 11:02:51;;;;;;;5.70;4.00;;;;;;;5.48;74.70;96543.81;108966;1259;74883;-27
2024/01/18 11:05:20;;;;;;;6.10;3.50;;;;;;;5.38;75.03;96543.64;108897;1259;59112;-27
2024/01/18 11:07:49;;;;;;;4.50;3.30;;;;;;;5.22;75.81;96536.45;108944;1261;58771;-27
2024/01/18 11:10:17;;;;;;;8.90;4.00;;;;;;;5.67;74.45;96536.88;108906;1260;72480;-27
2024/01/18 11:12:49;;;;;;;6.40;4.00;;;;;;;5.88;73.45;96533.44;109019;1259;74755;-28
2024/01/18 11:15:17;;;;;;;5.60;3.70;;;;;;;5.88;73.47;96530.52;108975;1260;74542;-27
2024/01/18 11:17:45;;;;;;;6.70;3.90;;;;;;;5.78;73.36;96532.40;108783;1260;59812;-27
2024/01/18 11:20:13;;;;;;;4.30;3.50;;;;;;;5.42;75.14;96530.84;108828;1260;61004;-27
2024/01/18 11:22:41;;;;;;;6.50;3.30;;;;;;;5.72;74.66;96530.10;108992;1260;75263;-27
2024/01/18 11:25:09;;;;;;;6.60;3.70;;;;;;;6.19;72.83;96526.16;108977;1259;74209;-27
2024/01/18 11:27:40;;;;;;;6.40;4.40;;;;;;;6.08;72.95;96527.81;108824;1260;74524;-27
2024/01/18 11:30:13;;;;;;;8.90;4.30;;;;;;;5.84;73.98;96535.54;108910;1260;61003;-27
2024/01/18 11:32:41;;;;;;;5.00;3.80;;;;;;;5.54;75.34;96540.64;108894;1259;61646;-27
2024/01/18 11:35:13;;;;;;;5.10;3.40;;;;;;;5.40;76.06;96540.64;108920;1259;74580;-27
2024/01/18 11:37:41;;;;;;;4.20;2.80;;;;;;;5.82;75.13;96538.38;108961;1259;75406;-29
2024/01/18 11:40:10;;;;;;;8.10;3.90;;;;;;;5.98;74.23;96534.98;108920;1259;73672;-28
2024/01/18 11:42:40;;;;;;;5.60;3.80;;;;;;;6.00;74.11;96535.80;108900;1260;60952;-28
2024/01/18 11:45:14;;;;;;;6.40;4.20;;;;;;;5.77;74.83;96538.22;109132;1257;62184;-29
2024/01/18 11:47:42;;;;;;;10.00;3.40;;;;;;;5.48;76.40;96533.70;109234;1257;74699;-29
2024/01/18 11:50:13;;;;;;;5.00;3.10;;;;;;;5.63;76.25;96530.05;109261;1257;75413;-29
2024/01/18 11:52:41;;;;;;;5.00;2.60;;;;;;;6.10;74.95;96527.77;109239;1256;73738;-29
2024/01/18 11:55:14;;;;;;;6.40;3.90;;;;;;;6.18;74.21;96522.34;109016;1256;60265;-29
2024/01/18 11:57:41;;;;;;;4.60;3.40;;;;;;;5.96;74.86;96526.77;109081;1257;58898;-29
2024/01/18 12:00:13;;;;;;;5.40;3.80;;;;;;;5.72;75.70;96522.27;109155;1256;73756;-28
2024/01/18 12:02:42;;;;;;;5.40;3.40;;;;;;;5.59;77.07;96528.71;109120;1255;74034;-29
2024/01/18 12:05:10;;;;;;;5.30;3.80;;;;;;;5.98;75.83;96523.31;109241;1255;73852;-26
2024/01/18 12:07:38;;;;;;;6.30;2.70;;;;;;;6.18;74.88;96525.98;109209;1256;60540;-28
2024/01/18 12:10:07;;;;;;;4.40;3.00;;;;;;;6.04;75.04;96528.91;109133;1256;59811;-28
2024/01/18 12:12:34;;;;;;;3.30;2.50;;;;;;;5.67;76.52;96530.04;109102;1257;76104;-28
2024/01/18 12:15:03;;;;;;;5.60;2.70;;;;;;;5.51;77.50;96527.57;109106;1256;76634;-28
2024/01/18 12:17:31;;;;;;;4.10;2.90;;;;;;;5.91;76.57;96523.47;109105;1256;74957;-28
2024/01/18 12:19:58;;;;;;;5.20;3.50;;;;;;;6.05;75.49;96518.16;109067;1256;60558;-28
2024/01/18 12:22:26;;;;;;;6.50;3.20;;;;;;;5.91;75.83;96514.50;109120;1256;61529;-28
2024/01/18 12:24:53;;;;;;;6.70;3.60;;;;;;;5.81;76.32;96510.94;109107;1256;75106;-28
2024/01/18 12:27:21;;;;;;;4.70;3.00;;;;;;;5.68;76.35;96500.61;109163;1257;75502;-28
2024/01/18 12:29:49;;;;;;;5.40;3.00;;;;;;;5.69;77.15;96495.74;109153;1256;74925;-29
2024/01/18 12:32:17;;;;;;;7.20;3.90;;;;;;;6.17;75.27;96485.57;109094;1256;61888;-29
2024/01/18 12:34:45;;;;;;;4.80;3.40;;;;;;;6.27;74.65;96487.66;109178;1256;59845;-29
2024/01/18 12:37:14;;;;;;;5.60;3.90;;;;;;;6.12;74.87;96485.88;109121;1256;74430;-29